sensor_id;sensor_type;location;lat;lon;timestamp;P1;durP1;ratioP1;P2;durP2;ratioP2
2406;SDS011;37709;53.480;9.688;2023-10-08T00:01:10;10.27;;;3.77;;
2406;SDS011;37709;53.480;9.688;2023-10-08T00:03:45;6.97;;;3.13;;
2406;SDS011;37709;53.480;9.688;2023-10-08T00:06:17;7.43;;;2.83;;
2406;SDS011;37709;53.480;9.688;2023-10-08T00:08:47;7.70;;;3.13;;
2406;SDS011;37709;53.480;9.688;2023-10-08T00:11:19;13.27;;;4.23;;
2406;SDS011;37709;53.480;9.688;2023-10-08T00:13:49;13.13;;;4.27;;
2406;SDS011;37709;53.480;9.688;2023-10-08T00:16:18;10.83;;;3.63;;
2406;SDS011;37709;53.480;9.688;2023-10-08T00:18:49;10.07;;;3.70;;
2406;SDS011;37709;53.480;9.688;2023-10-08T00:21:20;16.00;;;3.67;;
2406;SDS011;37709;53.480;9.688;2023-10-08T00:23:55;10.80;;;2.67;;
2406;SDS011;37709;53.480;9.688;2023-10-08T00:26:27;14.53;;;4.60;;
2406;SDS011;37709;53.480;9.688;2023-10-08T00:29:00;7.33;;;2.90;;
2406;SDS011;37709;53.480;9.688;2023-10-08T00:31:34;9.77;;;3.97;;
2406;SDS011;37709;53.480;9.688;2023-10-08T00:34:07;8.50;;;3.70;;
2406;SDS011;37709;53.480;9.688;2023-10-08T00:36:40;13.07;;;3.57;;
2406;SDS011;37709;53.480;9.688;2023-10-08T00:39:11;11.20;;;3.43;;
2406;SDS011;37709;53.480;9.688;2023-10-08T00:41:50;9.00;;;3.83;;
2406;SDS011;37709;53.480;9.688;2023-10-08T00:44:18;11.07;;;3.50;;
2406;SDS011;37709;53.480;9.688;2023-10-08T00:46:56;10.50;;;3.37;;
2406;SDS011;37709;53.480;9.688;2023-10-08T00:49:27;9.47;;;3.90;;
2406;SDS011;37709;53.480;9.688;2023-10-08T00:52:05;6.93;;;2.80;;
2406;SDS011;37709;53.480;9.688;2023-10-08T00:54:37;7.77;;;2.97;;
2406;SDS011;37709;53.480;9.688;2023-10-08T00:57:27;7.90;;;3.90;;
2406;SDS011;37709;53.480;9.688;2023-10-08T00:59:57;11.53;;;4.07;;
2406;SDS011;37709;53.480;9.688;2023-10-08T01:02:28;8.80;;;2.50;;
2406;SDS011;37709;53.480;9.688;2023-10-08T01:05:09;11.67;;;2.93;;
2406;SDS011;37709;53.480;9.688;2023-10-08T01:07:40;7.47;;;3.63;;
2406;SDS011;37709;53.480;9.688;2023-10-08T01:10:12;9.87;;;3.17;;
2406;SDS011;37709;53.480;9.688;2023-10-08T01:12:49;12.33;;;3.40;;
2406;SDS011;37709;53.480;9.688;2023-10-08T01:15:22;10.63;;;3.50;;
2406;SDS011;37709;53.480;9.688;2023-10-08T01:17:57;10.20;;;3.10;;
2406;SDS011;37709;53.480;9.688;2023-10-08T01:20:27;11.40;;;3.40;;
2406;SDS011;37709;53.480;9.688;2023-10-08T01:23:08;6.00;;;2.93;;
2406;SDS011;37709;53.480;9.688;2023-10-08T01:25:37;10.73;;;3.40;;
2406;SDS011;37709;53.480;9.688;2023-10-08T01:28:05;8.70;;;2.87;;
2406;SDS011;37709;53.480;9.688;2023-10-08T01:30:45;10.17;;;3.40;;
2406;SDS011;37709;53.480;9.688;2023-10-08T01:33:15;8.27;;;2.90;;
2406;SDS011;37709;53.480;9.688;2023-10-08T01:35:49;7.37;;;3.00;;
2406;SDS011;37709;53.480;9.688;2023-10-08T01:38:17;8.20;;;3.87;;
2406;SDS011;37709;53.480;9.688;2023-10-08T01:40:51;7.87;;;4.07;;
2406;SDS011;37709;53.480;9.688;2023-10-08T01:43:19;10.80;;;3.13;;
2406;SDS011;37709;53.480;9.688;2023-10-08T01:45:47;10.80;;;3.47;;
2406;SDS011;37709;53.480;9.688;2023-10-08T01:48:20;13.53;;;4.47;;
2406;SDS011;37709;53.480;9.688;2023-10-08T01:50:55;7.20;;;3.70;;
2406;SDS011;37709;53.480;9.688;2023-10-08T01:53:25;5.97;;;2.87;;
2406;SDS011;37709;53.480;9.688;2023-10-08T01:55:53;8.40;;;3.20;;
2406;SDS011;37709;53.480;9.688;2023-10-08T01:58:22;10.03;;;3.23;;
2406;SDS011;37709;53.480;9.688;2023-10-08T02:00:53;15.80;;;3.80;;
2406;SDS011;37709;53.480;9.688;2023-10-08T02:03:26;8.70;;;3.37;;
2406;SDS011;37709;53.480;9.688;2023-10-08T02:05:54;10.97;;;4.53;;
2406;SDS011;37709;53.480;9.688;2023-10-08T02:08:27;5.47;;;3.27;;
2406;SDS011;37709;53.480;9.688;2023-10-08T02:10:57;8.07;;;3.43;;
2406;SDS011;37709;53.480;9.688;2023-10-08T02:13:24;13.93;;;3.70;;
2406;SDS011;37709;53.480;9.688;2023-10-08T02:15:53;7.20;;;3.00;;
2406;SDS011;37709;53.480;9.688;2023-10-08T02:18:21;12.03;;;3.20;;
2406;SDS011;37709;53.480;9.688;2023-10-08T02:20:53;8.30;;;3.53;;
2406;SDS011;37709;53.480;9.688;2023-10-08T02:23:21;6.50;;;3.00;;
2406;SDS011;37709;53.480;9.688;2023-10-08T02:25:53;6.63;;;2.83;;
2406;SDS011;37709;53.480;9.688;2023-10-08T02:28:22;8.40;;;3.33;;
2406;SDS011;37709;53.480;9.688;2023-10-08T02:30:52;6.37;;;3.07;;
2406;SDS011;37709;53.480;9.688;2023-10-08T02:33:20;6.37;;;2.57;;
2406;SDS011;37709;53.480;9.688;2023-10-08T02:35:48;6.97;;;2.37;;
2406;SDS011;37709;53.480;9.688;2023-10-08T02:38:16;5.30;;;2.13;;
2406;SDS011;37709;53.480;9.688;2023-10-08T02:40:48;5.17;;;2.40;;
2406;SDS011;37709;53.480;9.688;2023-10-08T02:43:19;7.97;;;2.90;;
2406;SDS011;37709;53.480;9.688;2023-10-08T02:45:48;9.30;;;3.43;;
2406;SDS011;37709;53.480;9.688;2023-10-08T02:48:17;8.37;;;2.60;;
2406;SDS011;37709;53.480;9.688;2023-10-08T02:50:47;6.50;;;2.57;;
2406;SDS011;37709;53.480;9.688;2023-10-08T02:53:15;14.20;;;2.60;;
2406;SDS011;37709;53.480;9.688;2023-10-08T02:55:48;12.50;;;3.10;;
2406;SDS011;37709;53.480;9.688;2023-10-08T02:58:16;7.50;;;2.53;;
2406;SDS011;37709;53.480;9.688;2023-10-08T03:00:48;7.90;;;2.47;;
2406;SDS011;37709;53.480;9.688;2023-10-08T03:03:16;5.73;;;2.80;;
2406;SDS011;37709;53.480;9.688;2023-10-08T03:05:52;6.87;;;2.23;;
2406;SDS011;37709;53.480;9.688;2023-10-08T03:08:23;4.73;;;2.30;;
2406;SDS011;37709;53.480;9.688;2023-10-08T03:10:51;8.07;;;2.33;;
2406;SDS011;37709;53.480;9.688;2023-10-08T03:13:23;9.53;;;2.83;;
2406;SDS011;37709;53.480;9.688;2023-10-08T03:15:54;10.20;;;2.97;;
2406;SDS011;37709;53.480;9.688;2023-10-08T03:18:28;5.23;;;3.07;;
2406;SDS011;37709;53.480;9.688;2023-10-08T03:21:05;7.83;;;2.50;;
2406;SDS011;37709;53.480;9.688;2023-10-08T03:23:51;9.40;;;2.63;;
2406;SDS011;37709;53.480;9.688;2023-10-08T03:26:23;10.70;;;2.60;;
2406;SDS011;37709;53.480;9.688;2023-10-08T03:28:58;9.07;;;2.73;;
2406;SDS011;37709;53.480;9.688;2023-10-08T03:31:28;6.60;;;2.53;;
2406;SDS011;37709;53.480;9.688;2023-10-08T03:34:17;8.57;;;2.60;;
2406;SDS011;37709;53.480;9.688;2023-10-08T03:36:47;5.57;;;2.43;;
2406;SDS011;37709;53.480;9.688;2023-10-08T03:39:17;9.60;;;2.70;;
2406;SDS011;37709;53.480;9.688;2023-10-08T03:41:49;12.73;;;2.77;;
2406;SDS011;37709;53.480;9.688;2023-10-08T03:44:34;6.20;;;2.27;;
2406;SDS011;37709;53.480;9.688;2023-10-08T03:47:05;6.57;;;2.50;;
2406;SDS011;37709;53.480;9.688;2023-10-08T03:49:37;6.87;;;2.80;;
2406;SDS011;37709;53.480;9.688;2023-10-08T03:52:14;6.00;;;2.47;;
2406;SDS011;37709;53.480;9.688;2023-10-08T03:54:42;9.10;;;2.03;;
2406;SDS011;37709;53.480;9.688;2023-10-08T03:57:16;8.37;;;2.33;;
2406;SDS011;37709;53.480;9.688;2023-10-08T03:59:55;5.30;;;1.93;;
2406;SDS011;37709;53.480;9.688;2023-10-08T04:02:26;7.70;;;2.57;;
2406;SDS011;37709;53.480;9.688;2023-10-08T04:05:07;7.97;;;2.70;;
2406;SDS011;37709;53.480;9.688;2023-10-08T04:07:48;10.20;;;3.00;;
2406;SDS011;37709;53.480;9.688;2023-10-08T04:10:34;9.93;;;2.87;;
2406;SDS011;37709;53.480;9.688;2023-10-08T04:13:05;8.77;;;2.50;;
2406;SDS011;37709;53.480;9.688;2023-10-08T04:15:36;7.10;;;2.60;;
2406;SDS011;37709;53.480;9.688;2023-10-08T04:18:10;6.83;;;2.37;;
2406;SDS011;37709;53.480;9.688;2023-10-08T04:20:40;4.20;;;2.27;;
2406;SDS011;37709;53.480;9.688;2023-10-08T04:23:27;8.57;;;2.80;;
2406;SDS011;37709;53.480;9.688;2023-10-08T04:25:57;8.97;;;2.30;;
2406;SDS011;37709;53.480;9.688;2023-10-08T04:28:25;6.63;;;2.23;;
2406;SDS011;37709;53.480;9.688;2023-10-08T04:31:01;5.57;;;1.70;;
2406;SDS011;37709;53.480;9.688;2023-10-08T04:33:41;8.33;;;2.00;;
2406;SDS011;37709;53.480;9.688;2023-10-08T04:36:09;8.43;;;2.10;;
2406;SDS011;37709;53.480;9.688;2023-10-08T04:38:36;3.90;;;2.03;;
2406;SDS011;37709;53.480;9.688;2023-10-08T04:41:07;11.43;;;2.20;;
2406;SDS011;37709;53.480;9.688;2023-10-08T04:43:37;5.90;;;1.87;;
2406;SDS011;37709;53.480;9.688;2023-10-08T04:46:05;4.80;;;1.70;;
2406;SDS011;37709;53.480;9.688;2023-10-08T04:48:46;7.70;;;2.13;;
2406;SDS011;37709;53.480;9.688;2023-10-08T04:51:17;4.27;;;1.70;;
2406;SDS011;37709;53.480;9.688;2023-10-08T04:53:48;8.07;;;2.13;;
2406;SDS011;37709;53.480;9.688;2023-10-08T04:56:16;7.53;;;1.60;;
2406;SDS011;37709;53.480;9.688;2023-10-08T04:58:44;5.37;;;2.00;;
2406;SDS011;37709;53.480;9.688;2023-10-08T05:01:16;4.50;;;2.00;;
2406;SDS011;37709;53.480;9.688;2023-10-08T05:03:46;4.97;;;2.07;;
2406;SDS011;37709;53.480;9.688;2023-10-08T05:06:30;7.10;;;2.00;;
2406;SDS011;37709;53.480;9.688;2023-10-08T05:09:06;5.97;;;1.93;;
2406;SDS011;37709;53.480;9.688;2023-10-08T05:11:39;5.47;;;2.00;;
2406;SDS011;37709;53.480;9.688;2023-10-08T05:14:33;6.37;;;1.87;;
2406;SDS011;37709;53.480;9.688;2023-10-08T05:17:02;6.03;;;2.33;;
2406;SDS011;37709;53.480;9.688;2023-10-08T05:19:30;6.13;;;1.90;;
2406;SDS011;37709;53.480;9.688;2023-10-08T05:22:15;7.63;;;1.60;;
2406;SDS011;37709;53.480;9.688;2023-10-08T05:24:56;7.60;;;1.70;;
2406;SDS011;37709;53.480;9.688;2023-10-08T05:27:52;6.27;;;2.40;;
2406;SDS011;37709;53.480;9.688;2023-10-08T05:30:21;7.80;;;2.30;;
2406;SDS011;37709;53.480;9.688;2023-10-08T05:32:58;7.30;;;2.10;;
2406;SDS011;37709;53.480;9.688;2023-10-08T05:35:45;6.90;;;2.17;;
2406;SDS011;37709;53.480;9.688;2023-10-08T05:38:20;6.77;;;1.97;;
2406;SDS011;37709;53.480;9.688;2023-10-08T05:41:05;5.67;;;1.83;;
2406;SDS011;37709;53.480;9.688;2023-10-08T05:43:54;5.57;;;2.20;;
2406;SDS011;37709;53.480;9.688;2023-10-08T05:49:55;3.30;;;1.97;;
2406;SDS011;37709;53.480;9.688;2023-10-08T05:52:50;8.23;;;1.67;;
2406;SDS011;37709;53.480;9.688;2023-10-08T05:55:25;3.70;;;1.57;;
2406;SDS011;37709;53.480;9.688;2023-10-08T05:57:53;2.70;;;1.83;;
2406;SDS011;37709;53.480;9.688;2023-10-08T06:00:41;3.97;;;1.87;;
2406;SDS011;37709;53.480;9.688;2023-10-08T06:03:27;3.40;;;1.97;;
2406;SDS011;37709;53.480;9.688;2023-10-08T06:06:15;5.67;;;1.80;;
2406;SDS011;37709;53.480;9.688;2023-10-08T06:08:42;4.87;;;1.90;;
2406;SDS011;37709;53.480;9.688;2023-10-08T06:11:34;8.50;;;2.00;;
2406;SDS011;37709;53.480;9.688;2023-10-08T06:14:12;3.63;;;1.70;;
2406;SDS011;37709;53.480;9.688;2023-10-08T06:16:41;5.17;;;2.20;;
2406;SDS011;37709;53.480;9.688;2023-10-08T06:19:11;5.60;;;1.90;;
2406;SDS011;37709;53.480;9.688;2023-10-08T06:21:40;4.90;;;1.60;;
2406;SDS011;37709;53.480;9.688;2023-10-08T06:24:13;14.80;;;2.73;;
2406;SDS011;37709;53.480;9.688;2023-10-08T06:26:44;5.30;;;1.80;;
2406;SDS011;37709;53.480;9.688;2023-10-08T06:29:16;11.17;;;2.50;;
2406;SDS011;37709;53.480;9.688;2023-10-08T06:31:58;5.60;;;2.13;;
2406;SDS011;37709;53.480;9.688;2023-10-08T06:34:29;6.43;;;2.53;;
2406;SDS011;37709;53.480;9.688;2023-10-08T06:36:58;4.17;;;2.10;;
2406;SDS011;37709;53.480;9.688;2023-10-08T06:39:28;4.40;;;1.73;;
2406;SDS011;37709;53.480;9.688;2023-10-08T06:42:15;4.70;;;2.07;;
2406;SDS011;37709;53.480;9.688;2023-10-08T06:44:44;8.93;;;1.83;;
2406;SDS011;37709;53.480;9.688;2023-10-08T06:47:16;5.53;;;1.50;;
2406;SDS011;37709;53.480;9.688;2023-10-08T06:49:47;3.57;;;1.77;;
2406;SDS011;37709;53.480;9.688;2023-10-08T06:52:15;10.47;;;2.50;;
2406;SDS011;37709;53.480;9.688;2023-10-08T06:57:38;8.43;;;2.00;;
2406;SDS011;37709;53.480;9.688;2023-10-08T07:00:11;6.00;;;2.13;;
2406;SDS011;37709;53.480;9.688;2023-10-08T07:02:59;6.80;;;1.77;;
2406;SDS011;37709;53.480;9.688;2023-10-08T07:05:32;3.33;;;1.67;;
2406;SDS011;37709;53.480;9.688;2023-10-08T07:08:04;4.07;;;1.80;;
2406;SDS011;37709;53.480;9.688;2023-10-08T07:13:29;5.40;;;1.60;;
2406;SDS011;37709;53.480;9.688;2023-10-08T07:15:58;4.77;;;1.57;;
2406;SDS011;37709;53.480;9.688;2023-10-08T07:18:29;2.90;;;1.27;;
2406;SDS011;37709;53.480;9.688;2023-10-08T07:20:58;2.60;;;1.20;;
2406;SDS011;37709;53.480;9.688;2023-10-08T07:23:43;5.67;;;1.90;;
2406;SDS011;37709;53.480;9.688;2023-10-08T07:26:26;2.90;;;1.40;;
2406;SDS011;37709;53.480;9.688;2023-10-08T07:29:05;3.93;;;1.20;;
2406;SDS011;37709;53.480;9.688;2023-10-08T07:31:38;4.00;;;1.27;;
2406;SDS011;37709;53.480;9.688;2023-10-08T07:34:11;4.97;;;1.30;;
2406;SDS011;37709;53.480;9.688;2023-10-08T07:36:49;2.97;;;1.13;;
2406;SDS011;37709;53.480;9.688;2023-10-08T07:39:18;3.33;;;1.43;;
2406;SDS011;37709;53.480;9.688;2023-10-08T07:42:01;3.53;;;1.33;;
2406;SDS011;37709;53.480;9.688;2023-10-08T07:44:32;2.80;;;1.60;;
2406;SDS011;37709;53.480;9.688;2023-10-08T07:47:04;4.30;;;1.40;;
2406;SDS011;37709;53.480;9.688;2023-10-08T07:49:38;2.60;;;1.20;;
2406;SDS011;37709;53.480;9.688;2023-10-08T07:52:05;4.37;;;1.40;;
2406;SDS011;37709;53.480;9.688;2023-10-08T07:54:34;3.97;;;1.50;;
2406;SDS011;37709;53.480;9.688;2023-10-08T07:57:06;5.40;;;1.70;;
2406;SDS011;37709;53.480;9.688;2023-10-08T07:59:38;2.43;;;1.13;;
2406;SDS011;37709;53.480;9.688;2023-10-08T08:02:23;3.50;;;1.00;;
2406;SDS011;37709;53.480;9.688;2023-10-08T08:04:55;2.77;;;1.23;;
2406;SDS011;37709;53.480;9.688;2023-10-08T08:07:25;2.90;;;1.27;;
2406;SDS011;37709;53.480;9.688;2023-10-08T08:09:53;2.93;;;1.07;;
2406;SDS011;37709;53.480;9.688;2023-10-08T08:12:28;5.00;;;1.13;;
2406;SDS011;37709;53.480;9.688;2023-10-08T08:15:00;3.97;;;1.47;;
2406;SDS011;37709;53.480;9.688;2023-10-08T08:17:30;5.03;;;1.10;;
2406;SDS011;37709;53.480;9.688;2023-10-08T08:19:58;2.53;;;1.13;;
2406;SDS011;37709;53.480;9.688;2023-10-08T08:22:35;3.33;;;1.30;;
2406;SDS011;37709;53.480;9.688;2023-10-08T08:25:08;8.77;;;1.57;;
2406;SDS011;37709;53.480;9.688;2023-10-08T08:27:43;2.60;;;1.07;;
2406;SDS011;37709;53.480;9.688;2023-10-08T08:30:13;2.90;;;1.00;;
2406;SDS011;37709;53.480;9.688;2023-10-08T08:32:46;4.27;;;1.30;;
2406;SDS011;37709;53.480;9.688;2023-10-08T08:35:19;1.77;;;1.07;;
2406;SDS011;37709;53.480;9.688;2023-10-08T08:37:47;2.73;;;1.10;;
2406;SDS011;37709;53.480;9.688;2023-10-08T08:40:20;2.17;;;1.00;;
2406;SDS011;37709;53.480;9.688;2023-10-08T08:42:50;2.43;;;1.00;;
2406;SDS011;37709;53.480;9.688;2023-10-08T08:45:20;2.50;;;0.90;;
2406;SDS011;37709;53.480;9.688;2023-10-08T08:47:48;2.90;;;0.80;;
2406;SDS011;37709;53.480;9.688;2023-10-08T08:50:17;3.20;;;1.37;;
2406;SDS011;37709;53.480;9.688;2023-10-08T08:52:45;3.50;;;1.50;;
2406;SDS011;37709;53.480;9.688;2023-10-08T08:55:13;2.53;;;1.17;;
2406;SDS011;37709;53.480;9.688;2023-10-08T08:57:43;2.37;;;0.90;;
2406;SDS011;37709;53.480;9.688;2023-10-08T09:00:11;2.73;;;1.10;;
2406;SDS011;37709;53.480;9.688;2023-10-08T09:02:41;4.10;;;1.40;;
2406;SDS011;37709;53.480;9.688;2023-10-08T09:05:11;2.47;;;1.00;;
2406;SDS011;37709;53.480;9.688;2023-10-08T09:08:00;3.73;;;1.30;;
2406;SDS011;37709;53.480;9.688;2023-10-08T09:10:35;2.03;;;0.97;;
2406;SDS011;37709;53.480;9.688;2023-10-08T09:13:04;4.00;;;1.20;;
2406;SDS011;37709;53.480;9.688;2023-10-08T09:15:36;4.93;;;0.90;;
2406;SDS011;37709;53.480;9.688;2023-10-08T09:18:03;1.93;;;1.00;;
2406;SDS011;37709;53.480;9.688;2023-10-08T09:20:36;1.80;;;0.83;;
2406;SDS011;37709;53.480;9.688;2023-10-08T09:23:12;3.20;;;1.10;;
2406;SDS011;37709;53.480;9.688;2023-10-08T09:25:40;2.73;;;1.20;;
2406;SDS011;37709;53.480;9.688;2023-10-08T09:28:09;3.83;;;1.37;;
2406;SDS011;37709;53.480;9.688;2023-10-08T09:30:40;3.03;;;0.80;;
2406;SDS011;37709;53.480;9.688;2023-10-08T09:33:09;3.10;;;0.80;;
2406;SDS011;37709;53.480;9.688;2023-10-08T09:35:37;4.77;;;1.13;;
2406;SDS011;37709;53.480;9.688;2023-10-08T09:38:06;1.80;;;0.93;;
2406;SDS011;37709;53.480;9.688;2023-10-08T09:40:39;2.10;;;0.83;;
2406;SDS011;37709;53.480;9.688;2023-10-08T09:43:11;2.43;;;1.10;;
2406;SDS011;37709;53.480;9.688;2023-10-08T09:45:40;3.10;;;1.27;;
2406;SDS011;37709;53.480;9.688;2023-10-08T09:48:10;1.90;;;1.07;;
2406;SDS011;37709;53.480;9.688;2023-10-08T09:50:43;4.50;;;1.30;;
2406;SDS011;37709;53.480;9.688;2023-10-08T09:53:12;2.70;;;1.20;;
2406;SDS011;37709;53.480;9.688;2023-10-08T09:55:54;2.87;;;1.00;;
2406;SDS011;37709;53.480;9.688;2023-10-08T09:58:21;5.53;;;1.60;;
2406;SDS011;37709;53.480;9.688;2023-10-08T10:00:55;2.10;;;1.20;;
2406;SDS011;37709;53.480;9.688;2023-10-08T10:03:25;2.53;;;1.50;;
2406;SDS011;37709;53.480;9.688;2023-10-08T10:05:54;2.40;;;1.60;;
2406;SDS011;37709;53.480;9.688;2023-10-08T10:08:28;3.60;;;1.27;;
2406;SDS011;37709;53.480;9.688;2023-10-08T10:11:03;3.13;;;1.47;;
2406;SDS011;37709;53.480;9.688;2023-10-08T10:13:38;2.70;;;1.20;;
2406;SDS011;37709;53.480;9.688;2023-10-08T10:16:10;4.10;;;1.00;;
2406;SDS011;37709;53.480;9.688;2023-10-08T10:18:43;3.10;;;1.10;;
2406;SDS011;37709;53.480;9.688;2023-10-08T10:23:41;2.03;;;1.00;;
2406;SDS011;37709;53.480;9.688;2023-10-08T10:26:21;2.57;;;1.10;;
2406;SDS011;37709;53.480;9.688;2023-10-08T10:31:39;2.93;;;0.97;;
2406;SDS011;37709;53.480;9.688;2023-10-08T10:34:13;3.53;;;1.00;;
2406;SDS011;37709;53.480;9.688;2023-10-08T10:36:46;3.00;;;1.30;;
2406;SDS011;37709;53.480;9.688;2023-10-08T10:39:18;4.00;;;1.20;;
2406;SDS011;37709;53.480;9.688;2023-10-08T10:44:55;3.50;;;0.93;;
2406;SDS011;37709;53.480;9.688;2023-10-08T10:47:25;3.13;;;0.80;;
2406;SDS011;37709;53.480;9.688;2023-10-08T10:49:54;2.70;;;0.97;;
2406;SDS011;37709;53.480;9.688;2023-10-08T10:52:35;3.03;;;1.13;;
2406;SDS011;37709;53.480;9.688;2023-10-08T10:55:20;2.50;;;1.20;;
2406;SDS011;37709;53.480;9.688;2023-10-08T11:00:24;2.27;;;1.20;;
2406;SDS011;37709;53.480;9.688;2023-10-08T11:03:00;3.27;;;1.13;;
2406;SDS011;37709;53.480;9.688;2023-10-08T11:05:38;2.30;;;1.20;;
2406;SDS011;37709;53.480;9.688;2023-10-08T11:08:16;2.60;;;1.00;;
2406;SDS011;37709;53.480;9.688;2023-10-08T11:10:48;2.90;;;0.80;;
2406;SDS011;37709;53.480;9.688;2023-10-08T11:13:23;2.10;;;1.00;;
2406;SDS011;37709;53.480;9.688;2023-10-08T11:15:55;3.90;;;1.10;;
2406;SDS011;37709;53.480;9.688;2023-10-08T11:18:26;3.03;;;1.03;;
2406;SDS011;37709;53.480;9.688;2023-10-08T11:21:07;3.10;;;1.07;;
2406;SDS011;37709;53.480;9.688;2023-10-08T11:23:51;2.27;;;1.03;;
2406;SDS011;37709;53.480;9.688;2023-10-08T11:26:21;2.40;;;0.80;;
2406;SDS011;37709;53.480;9.688;2023-10-08T11:29:01;2.63;;;1.00;;
2406;SDS011;37709;53.480;9.688;2023-10-08T11:31:30;1.50;;;1.00;;
2406;SDS011;37709;53.480;9.688;2023-10-08T11:34:02;2.43;;;1.27;;
2406;SDS011;37709;53.480;9.688;2023-10-08T11:36:39;2.90;;;1.20;;
2406;SDS011;37709;53.480;9.688;2023-10-08T11:39:19;1.97;;;1.13;;
2406;SDS011;37709;53.480;9.688;2023-10-08T11:42:00;1.77;;;1.00;;
2406;SDS011;37709;53.480;9.688;2023-10-08T11:44:33;2.57;;;0.87;;
2406;SDS011;37709;53.480;9.688;2023-10-08T11:47:06;1.67;;;0.90;;
2406;SDS011;37709;53.480;9.688;2023-10-08T11:49:52;1.53;;;0.77;;
2406;SDS011;37709;53.480;9.688;2023-10-08T11:52:37;2.60;;;1.17;;
2406;SDS011;37709;53.480;9.688;2023-10-08T11:55:09;2.50;;;1.00;;
2406;SDS011;37709;53.480;9.688;2023-10-08T11:57:48;2.90;;;1.03;;
2406;SDS011;37709;53.480;9.688;2023-10-08T12:00:18;1.70;;;1.20;;
2406;SDS011;37709;53.480;9.688;2023-10-08T12:02:58;2.20;;;0.93;;
2406;SDS011;37709;53.480;9.688;2023-10-08T12:05:29;2.13;;;1.00;;
2406;SDS011;37709;53.480;9.688;2023-10-08T12:07:59;2.03;;;0.97;;
2406;SDS011;37709;53.480;9.688;2023-10-08T12:10:27;1.30;;;0.90;;
2406;SDS011;37709;53.480;9.688;2023-10-08T12:12:59;4.50;;;1.30;;
2406;SDS011;37709;53.480;9.688;2023-10-08T12:15:27;2.20;;;1.13;;
2406;SDS011;37709;53.480;9.688;2023-10-08T12:18:06;2.07;;;1.00;;
2406;SDS011;37709;53.480;9.688;2023-10-08T12:20:51;2.07;;;1.10;;
2406;SDS011;37709;53.480;9.688;2023-10-08T12:23:20;1.60;;;0.90;;
2406;SDS011;37709;53.480;9.688;2023-10-08T12:25:52;1.33;;;0.93;;
2406;SDS011;37709;53.480;9.688;2023-10-08T12:28:23;2.03;;;1.00;;
2406;SDS011;37709;53.480;9.688;2023-10-08T12:30:51;1.80;;;1.03;;
2406;SDS011;37709;53.480;9.688;2023-10-08T12:33:19;1.77;;;1.00;;
2406;SDS011;37709;53.480;9.688;2023-10-08T12:35:53;3.93;;;1.43;;
2406;SDS011;37709;53.480;9.688;2023-10-08T12:38:24;5.43;;;1.70;;
2406;SDS011;37709;53.480;9.688;2023-10-08T12:40:54;3.30;;;1.50;;
2406;SDS011;37709;53.480;9.688;2023-10-08T12:43:22;2.67;;;1.10;;
2406;SDS011;37709;53.480;9.688;2023-10-08T12:45:54;2.50;;;1.13;;
2406;SDS011;37709;53.480;9.688;2023-10-08T12:48:24;3.23;;;1.07;;
2406;SDS011;37709;53.480;9.688;2023-10-08T12:50:53;2.73;;;0.80;;
2406;SDS011;37709;53.480;9.688;2023-10-08T12:53:25;2.63;;;1.30;;
2406;SDS011;37709;53.480;9.688;2023-10-08T12:55:54;1.47;;;0.90;;
2406;SDS011;37709;53.480;9.688;2023-10-08T12:58:23;2.43;;;1.10;;
2406;SDS011;37709;53.480;9.688;2023-10-08T13:00:52;1.77;;;1.17;;
2406;SDS011;37709;53.480;9.688;2023-10-08T13:03:27;3.50;;;1.70;;
2406;SDS011;37709;53.480;9.688;2023-10-08T13:05:58;2.33;;;0.90;;
2406;SDS011;37709;53.480;9.688;2023-10-08T13:08:32;1.97;;;1.20;;
2406;SDS011;37709;53.480;9.688;2023-10-08T13:11:03;1.33;;;0.77;;
2406;SDS011;37709;53.480;9.688;2023-10-08T13:13:33;3.23;;;1.00;;
2406;SDS011;37709;53.480;9.688;2023-10-08T13:16:01;3.30;;;1.10;;
2406;SDS011;37709;53.480;9.688;2023-10-08T13:18:30;2.80;;;1.20;;
2406;SDS011;37709;53.480;9.688;2023-10-08T13:20:59;1.50;;;1.10;;
2406;SDS011;37709;53.480;9.688;2023-10-08T13:23:28;1.80;;;1.17;;
2406;SDS011;37709;53.480;9.688;2023-10-08T13:25:57;2.30;;;1.30;;
2406;SDS011;37709;53.480;9.688;2023-10-08T13:28:31;4.53;;;1.17;;
2406;SDS011;37709;53.480;9.688;2023-10-08T13:31:00;3.10;;;1.07;;
2406;SDS011;37709;53.480;9.688;2023-10-08T13:33:40;3.87;;;1.40;;
2406;SDS011;37709;53.480;9.688;2023-10-08T13:36:10;2.33;;;0.97;;
2406;SDS011;37709;53.480;9.688;2023-10-08T13:38:45;1.80;;;0.90;;
2406;SDS011;37709;53.480;9.688;2023-10-08T13:41:15;3.13;;;0.93;;
2406;SDS011;37709;53.480;9.688;2023-10-08T13:43:47;2.17;;;1.10;;
2406;SDS011;37709;53.480;9.688;2023-10-08T13:46:19;3.17;;;0.93;;
2406;SDS011;37709;53.480;9.688;2023-10-08T13:48:50;2.73;;;0.93;;
2406;SDS011;37709;53.480;9.688;2023-10-08T13:51:18;4.50;;;1.33;;
2406;SDS011;37709;53.480;9.688;2023-10-08T13:53:53;2.40;;;0.93;;
2406;SDS011;37709;53.480;9.688;2023-10-08T13:56:27;4.57;;;1.10;;
2406;SDS011;37709;53.480;9.688;2023-10-08T13:58:58;2.37;;;0.83;;
2406;SDS011;37709;53.480;9.688;2023-10-08T14:01:40;1.80;;;0.97;;
2406;SDS011;37709;53.480;9.688;2023-10-08T14:04:13;2.87;;;1.33;;
2406;SDS011;37709;53.480;9.688;2023-10-08T14:06:48;3.10;;;1.13;;
2406;SDS011;37709;53.480;9.688;2023-10-08T14:09:20;2.80;;;0.90;;
2406;SDS011;37709;53.480;9.688;2023-10-08T14:11:49;4.13;;;1.17;;
2406;SDS011;37709;53.480;9.688;2023-10-08T14:14:19;2.77;;;1.10;;
2406;SDS011;37709;53.480;9.688;2023-10-08T14:16:50;1.93;;;0.90;;
2406;SDS011;37709;53.480;9.688;2023-10-08T14:19:26;4.27;;;0.97;;
2406;SDS011;37709;53.480;9.688;2023-10-08T14:21:55;2.80;;;1.13;;
2406;SDS011;37709;53.480;9.688;2023-10-08T14:24:37;2.90;;;1.00;;
2406;SDS011;37709;53.480;9.688;2023-10-08T14:27:06;1.97;;;0.77;;
2406;SDS011;37709;53.480;9.688;2023-10-08T14:29:38;2.87;;;1.03;;
2406;SDS011;37709;53.480;9.688;2023-10-08T14:32:19;1.83;;;0.90;;
2406;SDS011;37709;53.480;9.688;2023-10-08T14:34:47;2.13;;;0.80;;
2406;SDS011;37709;53.480;9.688;2023-10-08T14:37:22;1.93;;;0.97;;
2406;SDS011;37709;53.480;9.688;2023-10-08T14:40:12;3.27;;;0.80;;
2406;SDS011;37709;53.480;9.688;2023-10-08T14:43:00;2.10;;;1.40;;
2406;SDS011;37709;53.480;9.688;2023-10-08T14:45:34;4.50;;;1.03;;
2406;SDS011;37709;53.480;9.688;2023-10-08T14:48:04;2.87;;;1.20;;
2406;SDS011;37709;53.480;9.688;2023-10-08T14:50:41;1.73;;;0.90;;
2406;SDS011;37709;53.480;9.688;2023-10-08T14:53:11;2.93;;;1.20;;
2406;SDS011;37709;53.480;9.688;2023-10-08T14:55:40;4.53;;;1.30;;
2406;SDS011;37709;53.480;9.688;2023-10-08T14:58:08;1.47;;;0.80;;
2406;SDS011;37709;53.480;9.688;2023-10-08T15:00:39;2.80;;;1.20;;
2406;SDS011;37709;53.480;9.688;2023-10-08T15:03:08;1.80;;;0.87;;
2406;SDS011;37709;53.480;9.688;2023-10-08T15:05:39;2.80;;;0.97;;
2406;SDS011;37709;53.480;9.688;2023-10-08T15:08:07;2.83;;;0.80;;
2406;SDS011;37709;53.480;9.688;2023-10-08T15:10:37;3.97;;;1.20;;
2406;SDS011;37709;53.480;9.688;2023-10-08T15:13:09;2.57;;;1.10;;
2406;SDS011;37709;53.480;9.688;2023-10-08T15:15:38;2.70;;;0.80;;
2406;SDS011;37709;53.480;9.688;2023-10-08T15:18:07;3.13;;;1.00;;
2406;SDS011;37709;53.480;9.688;2023-10-08T15:20:39;2.20;;;1.03;;
2406;SDS011;37709;53.480;9.688;2023-10-08T15:23:08;2.90;;;0.93;;
2406;SDS011;37709;53.480;9.688;2023-10-08T15:25:41;2.70;;;1.20;;
2406;SDS011;37709;53.480;9.688;2023-10-08T15:28:11;2.47;;;0.93;;
2406;SDS011;37709;53.480;9.688;2023-10-08T15:30:39;2.57;;;1.10;;
2406;SDS011;37709;53.480;9.688;2023-10-08T15:33:09;3.50;;;1.27;;
2406;SDS011;37709;53.480;9.688;2023-10-08T15:35:44;1.93;;;0.80;;
2406;SDS011;37709;53.480;9.688;2023-10-08T15:38:12;2.67;;;1.20;;
2406;SDS011;37709;53.480;9.688;2023-10-08T15:40:42;6.40;;;1.63;;
2406;SDS011;37709;53.480;9.688;2023-10-08T15:43:12;3.33;;;0.90;;
2406;SDS011;37709;53.480;9.688;2023-10-08T15:45:43;2.33;;;1.03;;
2406;SDS011;37709;53.480;9.688;2023-10-08T15:48:12;3.53;;;1.00;;
2406;SDS011;37709;53.480;9.688;2023-10-08T15:50:41;2.53;;;1.17;;
2406;SDS011;37709;53.480;9.688;2023-10-08T15:53:09;3.60;;;1.27;;
2406;SDS011;37709;53.480;9.688;2023-10-08T15:55:38;4.13;;;1.00;;